Wayside, WV (24985)

6:41 PM EDT on August 27, 2015 (GMT -0400)
ADAIR RIDGE ROAD | | Change Station
CLOSE
Current Station
Personal Weather Station
Location: Ballard, WV
Elevation: 2053 ft
Nearby Weather Stations

Elev 2053 ft 37.50 °N, 80.78 °W | Updated 9 seconds ago

Clear
Clear
74.0 °F
Feels Like 77 °F
N
0.0
Wind Variable Wind from North
Gusts 0.0 mph

Today
High -- | Low -- °F
--% Chance of Precip.
Yesterday
High -- | Low -- °F
Precip. -- in
6:48 AM 7:59 PM
Waxing Gibbous, 95% visible
Pressure 30.14 in
Visibility 10.0 miles
Clouds Clear
Heat Index 77 °F
Dew Point 55 °F
Humidity 52%
Rainfall 0.00 in
Snow Depth Not available.
UV 1 out of 12
Pollen 8.90 out of 12
Air Quality Not available.
Flu Activity Not available.
METAR KLWB 272215Z AUTO 00000KT 10SM CLR 24/09 A3014 RMK AO2 T02410091
Pressure 30.14 in
Visibility 10.0 miles
Clouds Clear
Heat Index 77 °F
Dew Point 55 °F
Humidity 52%
Rainfall 0.00 in
Snow Depth Not available.
UV 1 out of 12
Pollen 8.90 out of 12
Air Quality Not available.
Flu Activity Not available.
METAR KLWB 272215Z AUTO 00000KT 10SM CLR 24/09 A3014 RMK AO2 T02410091

10-Day Weather Forecast

×

Almanac

Astronomy

Aug. 27, 2015 Rise Set
Actual Time
Civil Twilight
Nautical Twilight
Astronomical Twilight
Moon
Length of Visible Light
Length of Day
Tomorrow will be .
, % of the Moon is Illuminated

Today's Extremes

State Highs State Lows

Community

WunderPhotos

Upload Photos

1,850,252 photos uploaded!

WunderBlogs® & News

Nearby

Air Quality

  Air Quality AQ Index Pollutant
Not available.

Snow Depth

Station Depth Elevation

Earthquake Activity

City Distance Mag. Time & Date
Minimum magnitude displayed is 2.5.

Coastal Water Temperatures

Place Temperature

Stations

Nearby Weather Stations

Station Location Temp. Windchill Dew Point Humidity Wind Precip. Elev Updated Type